Time;durP1;ratioP1;P1;durP2;ratioP2;P2;SDS_P1;SDS_P2;PMS_P1;PMS_P2;Temp;Humidity;BMP_temperature;BMP_pressure;BME280_temperature;BME280_humidity;BME280_pressure;Samples;Min_cycle;Max_cycle;Signal;HPM_P1;HPM_P2
2023/01/16 00:02:14;;;;;;;19.98;9.10;;;;;;;;;;5030529;28;20094;-62
2023/01/16 00:04:40;;;;;;;14.27;8.30;;;;;;;;;;5030107;28;20401;-60
2023/01/16 00:07:06;;;;;;;17.08;8.45;;;;;;;;;;5030579;28;20278;-61
2023/01/16 00:09:32;;;;;;;15.73;8.40;;;;;;;;;;5032760;28;20045;-61
2023/01/16 00:11:58;;;;;;;19.15;8.60;;;;;;;;;;5055056;23;20053;-61
2023/01/16 00:14:24;;;;;;;16.17;8.07;;;;;;;;;;5033266;28;20033;-60
2023/01/16 00:16:50;;;;;;;16.00;8.93;;;;;;;;;;5048394;28;20497;-63
2023/01/16 00:19:16;;;;;;;16.85;8.40;;;;;;;;;;5048570;28;20026;-61
2023/01/16 00:21:44;;;;;;;15.65;8.30;;;;;;;;;;5032977;28;20029;-61
2023/01/16 00:24:10;;;;;;;13.80;7.43;;;;;;;;;;5031677;28;20378;-61
2023/01/16 00:26:36;;;;;;;16.80;7.88;;;;;;;;;;5033065;28;20022;-61
2023/01/16 00:29:02;;;;;;;16.90;7.97;;;;;;;;;;5033374;28;20381;-61
2023/01/16 00:31:28;;;;;;;16.38;8.20;;;;;;;;;;5034578;28;20088;-61
2023/01/16 00:33:54;;;;;;;14.38;7.35;;;;;;;;;;5034394;28;20497;-61
2023/01/16 00:36:20;;;;;;;15.95;7.68;;;;;;;;;;5034598;28;20028;-61
2023/01/16 00:38:46;;;;;;;15.73;7.10;;;;;;;;;;5034465;28;20026;-61
2023/01/16 00:41:12;;;;;;;14.82;7.32;;;;;;;;;;5034232;28;20112;-61
2023/01/16 00:43:38;;;;;;;16.95;9.23;;;;;;;;;;5034238;28;20024;-61
2023/01/16 00:46:04;;;;;;;18.63;13.13;;;;;;;;;;5032888;28;20056;-61
2023/01/16 00:48:30;;;;;;;22.60;20.42;;;;;;;;;;5034400;28;20017;-62
2023/01/16 00:50:56;;;;;;;29.70;27.40;;;;;;;;;;5034188;28;20524;-62
2023/01/16 00:53:22;;;;;;;43.65;40.28;;;;;;;;;;5033906;28;20022;-62
2023/01/16 00:55:50;;;;;;;49.40;46.00;;;;;;;;;;5034225;28;20523;-62
2023/01/16 00:58:16;;;;;;;49.05;45.42;;;;;;;;;;5032960;28;20052;-62
2023/01/16 01:00:42;;;;;;;51.22;47.45;;;;;;;;;;5033910;28;20053;-61
2023/01/16 01:03:08;;;;;;;49.45;45.83;;;;;;;;;;5033790;28;20497;-61
2023/01/16 01:05:38;;;;;;;48.83;45.35;;;;;;;;;;5034066;28;20071;-61
2023/01/16 01:08:05;;;;;;;48.65;45.35;;;;;;;;;;5034089;28;20018;-61
2023/01/16 01:10:31;;;;;;;48.25;44.85;;;;;;;;;;5033900;28;20030;-61
2023/01/16 01:12:57;;;;;;;50.60;47.10;;;;;;;;;;5032429;28;20033;-62
2023/01/16 01:15:23;;;;;;;50.17;46.90;;;;;;;;;;5033713;28;20637;-62
2023/01/16 01:17:50;;;;;;;47.13;43.85;;;;;;;;;;5032517;28;20120;-61
2023/01/16 01:20:16;;;;;;;45.33;41.83;;;;;;;;;;5033800;28;20026;-62
2023/01/16 01:22:44;;;;;;;51.38;47.35;;;;;;;;;;5033796;28;20021;-60
2023/01/16 01:25:10;;;;;;;44.90;41.37;;;;;;;;;;5033769;28;20022;-58
2023/01/16 01:27:36;;;;;;;45.40;41.97;;;;;;;;;;5034038;28;20267;-61
2023/01/16 01:30:02;;;;;;;44.55;41.05;;;;;;;;;;5034067;28;20041;-60
2023/01/16 01:32:28;;;;;;;47.75;44.30;;;;;;;;;;5033554;28;20056;-60
2023/01/16 01:34:54;;;;;;;43.83;40.72;;;;;;;;;;5032184;28;20048;-61
2023/01/16 01:37:20;;;;;;;44.70;41.63;;;;;;;;;;5033593;28;20022;-60
2023/01/16 01:39:46;;;;;;;46.53;43.22;;;;;;;;;;5033497;28;20540;-59
2023/01/16 01:45:01;;;;;;;46.17;42.88;;;;;;;;;;5033316;28;20036;-61
2023/01/16 01:47:30;;;;;;;44.13;40.70;;;;;;;;;;5031893;28;20525;-60
2023/01/16 01:49:57;;;;;;;43.60;40.38;;;;;;;;;;5033358;28;20040;-61
2023/01/16 01:52:24;;;;;;;43.47;40.08;;;;;;;;;;5033157;28;20029;-61
2023/01/16 01:55:10;;;;;;;43.25;40.25;;;;;;;;;;5031841;28;20462;-60
2023/01/16 01:57:39;;;;;;;43.90;40.75;;;;;;;;;;5032794;28;20029;-60
2023/01/16 02:00:05;;;;;;;43.60;40.33;;;;;;;;;;5033267;28;20036;-56
2023/01/16 02:02:34;;;;;;;43.78;40.47;;;;;;;;;;5033092;28;20045;-59
2023/01/16 02:05:02;;;;;;;43.05;40.10;;;;;;;;;;5032707;28;20171;-61
2023/01/16 02:07:28;;;;;;;44.65;41.55;;;;;;;;;;5031599;28;20021;-60
2023/01/16 02:10:02;;;;;;;45.33;41.33;;;;;;;;;;5032834;28;20026;-61
2023/01/16 02:12:28;;;;;;;41.90;38.80;;;;;;;;;;5031301;28;20494;-60
2023/01/16 02:14:55;;;;;;;39.70;36.67;;;;;;;;;;5031280;28;20131;-61
2023/01/16 02:20:15;;;;;;;34.50;31.92;;;;;;;;;;5032815;28;20080;-57
2023/01/16 02:22:53;;;;;;;33.22;29.83;;;;;;;;;;5031408;28;20049;-61
2023/01/16 02:25:44;;;;;;;30.90;28.20;;;;;;;;;;5031123;28;20060;-62
2023/01/16 02:28:16;;;;;;;29.60;27.00;;;;;;;;;;5032609;28;20117;-61
2023/01/16 02:31:01;;;;;;;28.90;26.50;;;;;;;;;;5032503;28;20033;-60
2023/01/16 02:33:33;;;;;;;24.45;22.38;;;;;;;;;;5011243;28;20450;-61
2023/01/16 02:36:02;;;;;;;24.45;22.10;;;;;;;;;;5012687;28;20034;-62
2023/01/16 02:38:47;;;;;;;24.83;22.63;;;;;;;;;;5011077;28;20049;-62
2023/01/16 02:41:17;;;;;;;25.13;22.52;;;;;;;;;;5011344;28;20065;-62
2023/01/16 02:43:43;;;;;;;23.80;21.60;;;;;;;;;;5012215;28;20017;-63
2023/01/16 02:46:13;;;;;;;25.20;22.90;;;;;;;;;;5012571;28;20378;-61
2023/01/16 02:48:39;;;;;;;23.83;21.23;;;;;;;;;;5012578;28;20022;-62
2023/01/16 02:51:12;;;;;;;22.42;20.30;;;;;;;;;;5012487;28;20435;-62
2023/01/16 02:53:47;;;;;;;22.50;20.30;;;;;;;;;;5012202;28;20030;-62
2023/01/16 02:56:16;;;;;;;22.88;20.67;;;;;;;;;;5011241;28;20398;-62
2023/01/16 02:58:43;;;;;;;24.00;21.42;;;;;;;;;;5011003;28;20029;-62
2023/01/16 03:01:11;;;;;;;23.10;20.88;;;;;;;;;;5012126;28;20037;-61
2023/01/16 03:03:37;;;;;;;22.98;20.67;;;;;;;;;;5011911;28;20018;-62
2023/01/16 03:06:06;;;;;;;24.52;22.20;;;;;;;;;;5012264;28;20588;-61
2023/01/16 03:08:39;;;;;;;23.35;20.95;;;;;;;;;;5012195;28;20137;-61
2023/01/16 03:11:08;;;;;;;23.90;21.63;;;;;;;;;;5011898;28;20388;-61
2023/01/16 03:13:43;;;;;;;24.95;22.45;;;;;;;;;;5010772;28;20486;-62
2023/01/16 03:16:23;;;;;;;23.55;21.52;;;;;;;;;;5011044;28;20061;-62
2023/01/16 03:18:55;;;;;;;25.08;22.50;;;;;;;;;;5012374;28;20049;-60
2023/01/16 03:21:42;;;;;;;25.27;23.08;;;;;;;;;;5011717;28;20072;-62
2023/01/16 03:24:17;;;;;;;26.05;23.70;;;;;;;;;;5011859;28;20498;-62
2023/01/16 03:26:46;;;;;;;25.90;23.55;;;;;;;;;;5011891;28;20117;-63
2023/01/16 03:29:12;;;;;;;;;;;;;;;;;;5012369;28;20053;-62
2023/01/16 03:31:51;;;;;;;26.45;24.05;;;;;;;;;;5011839;28;19943;-62
2023/01/16 03:34:26;;;;;;;26.48;24.25;;;;;;;;;;5011655;28;20101;-62
2023/01/16 03:37:05;;;;;;;27.83;25.33;;;;;;;;;;5010658;28;20026;-62
2023/01/16 03:39:37;;;;;;;28.40;25.80;;;;;;;;;;5018889;28;20032;-62
2023/01/16 03:42:14;;;;;;;28.63;26.13;;;;;;;;;;5030440;28;20022;-62
2023/01/16 03:44:43;;;;;;;29.17;26.87;;;;;;;;;;5031865;28;20025;-62
2023/01/16 03:47:11;;;;;;;28.75;26.35;;;;;;;;;;5031635;28;20022;-62
2023/01/16 03:49:42;;;;;;;29.48;26.95;;;;;;;;;;5030384;28;20041;-62
2023/01/16 03:52:12;;;;;;;28.35;25.95;;;;;;;;;;5030276;28;20062;-62
2023/01/16 03:54:58;;;;;;;28.92;26.35;;;;;;;;;;5031422;28;20080;-62
2023/01/16 03:57:38;;;;;;;29.10;26.60;;;;;;;;;;5031623;28;20398;-63
2023/01/16 04:00:04;;;;;;;28.02;25.70;;;;;;;;;;5031353;28;20030;-62
2023/01/16 04:02:40;;;;;;;27.58;25.17;;;;;;;;;;5031820;28;20409;-60
2023/01/16 04:05:13;;;;;;;26.60;24.13;;;;;;;;;;5031930;28;20100;-62
2023/01/16 04:07:43;;;;;;;27.30;24.70;;;;;;;;;;5031480;28;20100;-63
2023/01/16 04:10:11;;;;;;;26.67;24.17;;;;;;;;;;5031445;28;20022;-66
2023/01/16 04:12:40;;;;;;;25.70;23.30;;;;;;;;;;5030971;28;20117;-61
2023/01/16 04:15:07;;;;;;;25.45;23.17;;;;;;;;;;5031194;28;20029;-62
2023/01/16 04:17:34;;;;;;;24.73;22.52;;;;;;;;;;5031396;28;20026;-62
2023/01/16 04:20:00;;;;;;;26.40;24.00;;;;;;;;;;5032167;28;20036;-62
2023/01/16 04:22:28;;;;;;;27.70;24.98;;;;;;;;;;5035876;28;20029;-62
2023/01/16 04:24:56;;;;;;;25.97;23.67;;;;;;;;;;5033513;28;20109;-62
2023/01/16 04:27:22;;;;;;;25.80;23.58;;;;;;;;;;5034942;28;20393;-62
2023/01/16 04:29:48;;;;;;;26.63;24.13;;;;;;;;;;5034902;28;20026;-62
2023/01/16 04:32:14;;;;;;;26.58;24.38;;;;;;;;;;5034620;28;20103;-63
2023/01/16 04:34:40;;;;;;;27.45;24.95;;;;;;;;;;5034483;28;20025;-62
2023/01/16 04:37:06;;;;;;;26.80;24.58;;;;;;;;;;5034517;28;20105;-62
2023/01/16 04:39:32;;;;;;;27.60;25.20;;;;;;;;;;5034368;28;20545;-62
2023/01/16 04:41:58;;;;;;;26.75;24.45;;;;;;;;;;5034344;28;20104;-62
2023/01/16 04:44:24;;;;;;;26.65;24.45;;;;;;;;;;5034146;28;20052;-62
2023/01/16 04:46:51;;;;;;;26.95;24.63;;;;;;;;;;5033226;28;20489;-63
2023/01/16 04:49:17;;;;;;;26.08;23.77;;;;;;;;;;5034544;28;20017;-61
2023/01/16 04:51:42;;;;;;;25.83;23.58;;;;;;;;;;5033984;28;20041;-62
2023/01/16 04:54:13;;;;;;;25.58;23.33;;;;;;;;;;5032646;28;20112;-62
2023/01/16 04:56:39;;;;;;;26.40;24.23;;;;;;;;;;5034317;28;20026;-62
2023/01/16 04:59:05;;;;;;;26.98;24.55;;;;;;;;;;5034283;28;20028;-61
2023/01/16 05:01:34;;;;;;;26.60;24.40;;;;;;;;;;5034070;28;20379;-62
2023/01/16 05:04:01;;;;;;;27.60;25.23;;;;;;;;;;5032660;28;20022;-62
2023/01/16 05:06:27;;;;;;;28.27;25.55;;;;;;;;;;5032945;28;20026;-62
2023/01/16 05:08:53;;;;;;;27.50;25.08;;;;;;;;;;5034152;28;20022;-62
2023/01/16 05:11:19;;;;;;;29.23;26.58;;;;;;;;;;5033633;28;20129;-62
2023/01/16 05:13:45;;;;;;;28.23;25.88;;;;;;;;;;5032359;28;20049;-62
2023/01/16 05:16:11;;;;;;;29.73;27.33;;;;;;;;;;5033843;28;20064;-62
2023/01/16 05:18:37;;;;;;;29.30;27.00;;;;;;;;;;5032662;28;20017;-62
2023/01/16 05:21:04;;;;;;;30.33;27.48;;;;;;;;;;5033629;28;20386;-62
2023/01/16 05:23:31;;;;;;;30.17;27.58;;;;;;;;;;5033251;28;20021;-62
2023/01/16 05:25:57;;;;;;;30.00;27.58;;;;;;;;;;5033534;28;20404;-62
2023/01/16 05:28:23;;;;;;;29.33;27.02;;;;;;;;;;5033305;28;20021;-62
2023/01/16 05:30:49;;;;;;;30.48;27.77;;;;;;;;;;5031773;28;20033;-62
2023/01/16 05:33:15;;;;;;;29.88;27.48;;;;;;;;;;5032471;28;20025;-62
2023/01/16 05:35:41;;;;;;;30.25;27.85;;;;;;;;;;5033601;28;20087;-59
2023/01/16 05:38:07;;;;;;;29.27;26.98;;;;;;;;;;5033473;28;20026;-61
2023/01/16 05:40:33;;;;;;;29.67;27.08;;;;;;;;;;5031847;28;20033;-62
2023/01/16 05:42:59;;;;;;;29.88;27.38;;;;;;;;;;5033165;28;20318;-61
2023/01/16 05:45:25;;;;;;;30.70;28.15;;;;;;;;;;5032520;28;20128;-62
2023/01/16 05:47:51;;;;;;;30.08;27.55;;;;;;;;;;5033353;28;20048;-62
2023/01/16 05:50:17;;;;;;;30.05;27.73;;;;;;;;;;5031894;28;20533;-61
2023/01/16 05:52:43;;;;;;;29.20;26.90;;;;;;;;;;5032741;28;20056;-62
2023/01/16 05:55:09;;;;;;;29.63;27.33;;;;;;;;;;5031505;28;20037;-61
2023/01/16 05:57:35;;;;;;;29.48;27.17;;;;;;;;;;5033002;28;20396;-62
2023/01/16 06:00:01;;;;;;;29.02;26.63;;;;;;;;;;5033016;28;20091;-61
2023/01/16 06:02:27;;;;;;;28.73;26.25;;;;;;;;;;5031525;28;20036;-61
2023/01/16 06:04:53;;;;;;;28.45;26.15;;;;;;;;;;5031279;28;20378;-61
2023/01/16 06:07:19;;;;;;;28.92;26.23;;;;;;;;;;5032511;28;20518;-62
2023/01/16 06:09:45;;;;;;;27.35;24.95;;;;;;;;;;5031177;28;20495;-62
2023/01/16 06:12:14;;;;;;;27.88;25.58;;;;;;;;;;5033495;28;20029;-62
2023/01/16 06:14:40;;;;;;;27.92;25.48;;;;;;;;;;5031773;28;20033;-62
2023/01/16 06:17:06;;;;;;;27.48;25.23;;;;;;;;;;5030849;28;20025;-62
2023/01/16 06:19:32;;;;;;;28.00;25.65;;;;;;;;;;5030364;28;20465;-61
2023/01/16 06:21:58;;;;;;;27.50;25.10;;;;;;;;;;5031661;28;20617;-64
2023/01/16 06:24:24;;;;;;;27.48;25.00;;;;;;;;;;5033539;28;20017;-62
2023/01/16 06:26:50;;;;;;;25.98;23.88;;;;;;;;;;5033759;28;20021;-62
2023/01/16 06:29:16;;;;;;;26.92;24.52;;;;;;;;;;5032020;28;20044;-62
2023/01/16 06:31:42;;;;;;;26.77;24.48;;;;;;;;;;5031574;28;20029;-61
2023/01/16 06:34:08;;;;;;;26.10;23.92;;;;;;;;;;5031258;28;20170;-63
2023/01/16 06:36:34;;;;;;;26.40;24.15;;;;;;;;;;5031782;28;20025;-62
2023/01/16 06:39:00;;;;;;;25.63;23.35;;;;;;;;;;5031610;28;20697;-61
2023/01/16 06:41:26;;;;;;;25.80;23.50;;;;;;;;;;5031804;28;20025;-58
2023/01/16 06:43:52;;;;;;;26.10;23.83;;;;;;;;;;5030914;28;20025;-61
2023/01/16 06:46:18;;;;;;;25.67;23.48;;;;;;;;;;5031648;28;20536;-63
2023/01/16 06:48:44;;;;;;;24.58;22.42;;;;;;;;;;5031272;28;20025;-62
2023/01/16 06:51:10;;;;;;;24.10;21.98;;;;;;;;;;5031590;28;20030;-62
2023/01/16 06:53:36;;;;;;;23.70;21.50;;;;;;;;;;5031295;28;20036;-58
2023/01/16 06:56:03;;;;;;;22.92;20.75;;;;;;;;;;5029984;28;20055;-62
2023/01/16 06:58:29;;;;;;;23.23;21.02;;;;;;;;;;5031002;28;20033;-61
2023/01/16 07:00:55;;;;;;;24.05;20.75;;;;;;;;;;5030508;28;20099;-61
2023/01/16 07:03:21;;;;;;;22.38;20.30;;;;;;;;;;5030445;28;20052;-61
2023/01/16 07:05:47;;;;;;;22.23;20.23;;;;;;;;;;5031073;28;20045;-62
2023/01/16 07:08:14;;;;;;;21.33;19.23;;;;;;;;;;5031018;28;20029;-63
2023/01/16 07:10:40;;;;;;;22.17;19.98;;;;;;;;;;5029512;28;20025;-62
2023/01/16 07:13:06;;;;;;;21.63;19.63;;;;;;;;;;5030844;28;20048;-62
2023/01/16 07:23:49;;;;;;;19.63;17.73;;;;;;;;;;5030877;28;20413;-62
2023/01/16 07:26:18;;;;;;;20.00;18.00;;;;;;;;;;5031104;28;20095;-61
2023/01/16 07:28:45;;;;;;;20.02;18.10;;;;;;;;;;5028453;28;20017;-61
2023/01/16 07:31:11;;;;;;;19.55;17.45;;;;;;;;;;5029652;28;20097;-62
2023/01/16 07:33:37;;;;;;;20.23;18.08;;;;;;;;;;5030473;28;20026;-62
2023/01/16 07:36:03;;;;;;;18.77;16.85;;;;;;;;;;5030850;28;20033;-61
2023/01/16 07:38:29;;;;;;;18.40;16.17;;;;;;;;;;5029358;28;20049;-62
2023/01/16 07:40:55;;;;;;;19.63;16.05;;;;;;;;;;5030561;28;20029;-61
2023/01/16 07:43:21;;;;;;;17.23;15.32;;;;;;;;;;5030452;28;20091;-59
2023/01/16 07:45:51;;;;;;;18.80;15.70;;;;;;;;;;5029437;28;20394;-61
2023/01/16 07:48:18;;;;;;;18.33;15.82;;;;;;;;;;5029600;28;20018;-62
2023/01/16 07:50:49;;;;;;;17.33;15.27;;;;;;;;;;5030089;28;20140;-57
2023/01/16 07:53:15;;;;;;;19.35;15.07;;;;;;;;;;5029735;28;20481;-61
2023/01/16 07:55:41;;;;;;;17.27;14.77;;;;;;;;;;5032155;28;20533;-59
2023/01/16 07:58:07;;;;;;;17.08;14.32;;;;;;;;;;5033752;28;20136;-60
2023/01/16 08:00:33;;;;;;;17.08;14.80;;;;;;;;;;5033083;28;20374;-60
2023/01/16 08:03:00;;;;;;;17.48;14.48;;;;;;;;;;5033748;28;20030;-57
2023/01/16 08:05:27;;;;;;;18.88;14.88;;;;;;;;;;5033318;28;20025;-59
2023/01/16 08:07:53;;;;;;;18.40;14.02;;;;;;;;;;5032972;28;20442;-60
2023/01/16 08:10:19;;;;;;;18.30;13.57;;;;;;;;;;5034959;28;20613;-62
2023/01/16 08:12:45;;;;;;;17.23;12.75;;;;;;;;;;5033099;28;20053;-63
2023/01/16 08:15:11;;;;;;;17.55;13.60;;;;;;;;;;5034620;28;20021;-63
2023/01/16 08:17:39;;;;;;;15.95;12.73;;;;;;;;;;5035214;28;20021;-61
2023/01/16 08:20:05;;;;;;;15.73;12.23;;;;;;;;;;5034679;28;20045;-61
2023/01/16 08:22:31;;;;;;;16.38;12.00;;;;;;;;;;5034311;28;20033;-63
2023/01/16 08:24:57;;;;;;;16.45;12.35;;;;;;;;;;5034233;28;20025;-61
2023/01/16 08:27:24;;;;;;;18.63;12.43;;;;;;;;;;5034242;28;20029;-58
2023/01/16 08:29:50;;;;;;;15.48;12.25;;;;;;;;;;5033047;28;20032;-63
2023/01/16 08:32:16;;;;;;;17.92;12.60;;;;;;;;;;5034178;28;20021;-64
2023/01/16 08:34:42;;;;;;;16.55;12.35;;;;;;;;;;5034058;28;20048;-62
2023/01/16 08:37:10;;;;;;;17.58;12.35;;;;;;;;;;5034074;28;20025;-62
2023/01/16 08:39:36;;;;;;;16.55;12.10;;;;;;;;;;5032673;28;20492;-62
2023/01/16 08:53:03;;;;;;;18.08;11.65;;;;;;;;;;5033859;28;20064;-62
2023/01/16 08:55:29;;;;;;;16.45;11.57;;;;;;;;;;5032735;28;20116;-60
2023/01/16 08:57:58;;;;;;;16.42;11.57;;;;;;;;;;5033672;28;20116;-62
2023/01/16 09:00:24;;;;;;;16.45;11.52;;;;;;;;;;5032279;28;20120;-61
2023/01/16 09:02:50;;;;;;;15.75;11.35;;;;;;;;;;5033585;28;20025;-61
2023/01/16 09:05:16;;;;;;;17.08;10.85;;;;;;;;;;5031876;28;20025;-61
2023/01/16 09:07:42;;;;;;;15.55;10.57;;;;;;;;;;5033436;28;20026;-66
2023/01/16 09:10:09;;;;;;;15.20;10.45;;;;;;;;;;5032464;28;20522;-65
2023/01/16 09:15:20;;;;;;;16.90;10.65;;;;;;;;;;5033277;28;20056;-66
2023/01/16 09:17:46;;;;;;;18.52;11.23;;;;;;;;;;5033609;28;20030;-66
2023/01/16 09:20:12;;;;;;;21.33;13.15;;;;;;;;;;5033145;28;20438;-67
2023/01/16 09:22:38;;;;;;;23.75;13.50;;;;;;;;;;5033349;28;20018;-65
2023/01/16 09:25:04;;;;;;;27.38;13.68;;;;;;;;;;5033199;28;20025;-65
2023/01/16 09:27:30;;;;;;;23.42;13.43;;;;;;;;;;5033254;28;20045;-66
2023/01/16 09:29:56;;;;;;;31.15;16.23;;;;;;;;;;5030960;28;20060;-66
2023/01/16 09:32:22;;;;;;;17.80;11.35;;;;;;;;;;5033072;28;20056;-67
2023/01/16 09:34:48;;;;;;;17.70;11.20;;;;;;;;;;5032265;28;20021;-66
2023/01/16 09:37:14;;;;;;;16.30;10.90;;;;;;;;;;5032012;28;20078;-65
2023/01/16 09:39:41;;;;;;;15.88;10.50;;;;;;;;;;5031824;28;20080;-67
2023/01/16 09:45:26;;;;;;;15.10;10.10;;;;;;;;;;5023525;28;20370;-66
2023/01/16 09:47:55;;;;;;;15.80;11.25;;;;;;;;;;5033206;28;20118;-66
2023/01/16 09:50:57;;;;;;;15.30;11.18;;;;;;;;;;5031649;28;20029;-66
2023/01/16 09:58:35;;;;;;;19.40;11.52;;;;;;;;;;5011530;28;20028;-58
2023/01/16 09:59:20;;;;;;;19.95;11.75;;;;;;;;;;5032467;28;20033;-55
2023/01/16 10:01:49;;;;;;;18.45;12.07;;;;;;;;;;5031507;28;20633;-52
2023/01/16 10:04:20;;;;;;;16.02;11.65;;;;;;;;;;5031177;28;20025;-57
2023/01/16 10:06:54;;;;;;;15.63;11.40;;;;;;;;;;5032070;28;20029;-57
2023/01/16 10:09:27;;;;;;;15.57;11.35;;;;;;;;;;5032559;28;20438;-58
2023/01/16 10:12:03;;;;;;;17.08;11.32;;;;;;;;;;5030977;28;20460;-59
2023/01/16 10:14:29;;;;;;;18.75;11.25;;;;;;;;;;5031977;28;20116;-55
2023/01/16 10:17:14;;;;;;;18.73;11.30;;;;;;;;;;5032061;28;20040;-58
2023/01/16 10:19:40;;;;;;;18.20;10.55;;;;;;;;;;5032390;28;20018;-57
2023/01/16 10:22:18;;;;;;;17.58;10.38;;;;;;;;;;5032669;28;20026;-57
2023/01/16 10:25:01;;;;;;;15.30;10.00;;;;;;;;;;5031921;28;20048;-58
2023/01/16 10:27:46;;;;;;;17.55;10.15;;;;;;;;;;5032123;28;20028;-56
2023/01/16 10:30:19;;;;;;;26.70;11.75;;;;;;;;;;5031918;28;20021;-63
2023/01/16 10:32:52;;;;;;;18.42;10.50;;;;;;;;;;5031536;28;20022;-65
2023/01/16 10:35:32;;;;;;;20.05;10.82;;;;;;;;;;5030499;28;20029;-60
2023/01/16 10:38:04;;;;;;;23.27;12.80;;;;;;;;;;5031953;28;20018;-58
2023/01/16 10:40:30;;;;;;;19.38;9.65;;;;;;;;;;5030593;28;20026;-65
2023/01/16 10:51:34;;;;;;;20.85;9.15;;;;;;;;;;5029677;28;19979;-66
2023/01/16 10:54:02;;;;;;;15.13;9.07;;;;;;;;;;5032149;28;20021;-65
2023/01/16 10:56:29;;;;;;;15.07;8.98;;;;;;;;;;5032125;28;20021;-66
2023/01/16 10:58:55;;;;;;;18.42;9.30;;;;;;;;;;5031851;28;20037;-65
2023/01/16 11:01:23;;;;;;;16.73;8.30;;;;;;;;;;5032047;28;20017;-64
2023/01/16 11:03:50;;;;;;;15.20;8.90;;;;;;;;;;5031607;28;20061;-65
2023/01/16 11:06:19;;;;;;;15.10;8.50;;;;;;;;;;5031388;28;20021;-64
2023/01/16 11:08:48;;;;;;;14.43;8.20;;;;;;;;;;5031516;28;20017;-65
2023/01/16 11:19:39;;;;;;;14.70;9.45;;;;;;;;;;5031511;28;20041;-64
2023/01/16 11:22:20;;;;;;;15.95;8.80;;;;;;;;;;5031259;28;20026;-64
2023/01/16 11:24:46;;;;;;;16.40;9.73;;;;;;;;;;5031134;28;20532;-64
2023/01/16 11:27:18;;;;;;;15.63;11.45;;;;;;;;;;5031261;28;20057;-64
2023/01/16 11:29:44;;;;;;;17.98;10.52;;;;;;;;;;5030213;28;20079;-65
2023/01/16 11:32:12;;;;;;;15.15;9.73;;;;;;;;;;5030939;28;20108;-66
2023/01/16 11:34:40;;;;;;;15.07;9.25;;;;;;;;;;5031073;28;20114;-65
2023/01/16 11:37:07;;;;;;;15.43;9.35;;;;;;;;;;5031434;28;20461;-65
2023/01/16 11:39:34;;;;;;;16.33;9.70;;;;;;;;;;5031474;28;20083;-64
2023/01/16 11:47:40;;;;;;;15.10;9.10;;;;;;;;;;5042176;28;20033;-65
2023/01/16 11:50:22;;;;;;;14.45;9.00;;;;;;;;;;5042822;28;20083;-65
2023/01/16 11:52:48;;;;;;;14.27;8.90;;;;;;;;;;5036788;28;20116;-64
2023/01/16 11:55:15;;;;;;;15.68;9.27;;;;;;;;;;5031648;28;20056;-67
2023/01/16 11:57:44;;;;;;;14.57;9.27;;;;;;;;;;5031236;28;20355;-65
2023/01/16 12:00:25;;;;;;;15.05;9.98;;;;;;;;;;5029599;28;20037;-65
2023/01/16 12:02:51;;;;;;;14.90;9.20;;;;;;;;;;5030610;28;20026;-64
2023/01/16 12:08:21;;;;;;;15.10;9.23;;;;;;;;;;5031068;28;20040;-64
2023/01/16 12:10:56;;;;;;;14.55;8.23;;;;;;;;;;5029416;28;20036;-65
2023/01/16 12:16:10;;;;;;;13.45;7.97;;;;;;;;;;5030904;28;20045;-65
2023/01/16 12:18:46;;;;;;;13.88;8.68;;;;;;;;;;5030806;28;20038;-66
2023/01/16 12:21:21;;;;;;;14.90;7.80;;;;;;;;;;5030525;28;20030;-64
2023/01/16 12:23:50;;;;;;;13.48;7.70;;;;;;;;;;5030517;28;20028;-66
2023/01/16 12:26:22;;;;;;;14.27;8.05;;;;;;;;;;5030569;28;20056;-67
2023/01/16 12:28:51;;;;;;;13.63;7.68;;;;;;;;;;5030585;28;20029;-62
2023/01/16 12:31:31;;;;;;;13.73;7.68;;;;;;;;;;5030006;28;20119;-63
2023/01/16 12:34:06;;;;;;;13.07;7.68;;;;;;;;;;5030261;28;20017;-62
2023/01/16 12:36:35;;;;;;;14.57;7.78;;;;;;;;;;5030921;28;20079;-65
2023/01/16 12:39:22;;;;;;;14.20;7.85;;;;;;;;;;5030544;28;20080;-66
2023/01/16 12:44:35;;;;;;;13.93;7.70;;;;;;;;;;5033996;28;20033;-66
2023/01/16 12:47:08;;;;;;;13.20;7.50;;;;;;;;;;5034207;28;20100;-66
2023/01/16 12:49:34;;;;;;;13.32;7.70;;;;;;;;;;5034205;28;20033;-66
2023/01/16 12:52:09;;;;;;;13.77;7.63;;;;;;;;;;5033819;28;20025;-65
2023/01/16 12:54:46;;;;;;;13.20;7.30;;;;;;;;;;5033491;28;20482;-65
2023/01/16 12:57:15;;;;;;;13.48;7.45;;;;;;;;;;5033752;28;20033;-65
2023/01/16 12:59:48;;;;;;;13.02;7.20;;;;;;;;;;5033504;28;20470;-66
2023/01/16 13:02:20;;;;;;;13.05;7.35;;;;;;;;;;5032824;28;20341;-66
2023/01/16 13:04:52;;;;;;;13.02;7.38;;;;;;;;;;5033501;28;20018;-65
2023/01/16 13:07:18;;;;;;;13.65;7.72;;;;;;;;;;5033323;28;20048;-65
2023/01/16 13:09:51;;;;;;;13.88;7.15;;;;;;;;;;5034583;28;20100;-66
2023/01/16 13:15:12;;;;;;;13.55;7.53;;;;;;;;;;5044214;28;20043;-58
2023/01/16 13:17:46;;;;;;;13.32;7.55;;;;;;;;;;5032608;28;20490;-66
2023/01/16 13:20:14;;;;;;;14.00;7.72;;;;;;;;;;5033762;28;20052;-65
2023/01/16 13:22:49;;;;;;;13.73;8.07;;;;;;;;;;5033148;28;20041;-67
2023/01/16 13:25:18;;;;;;;14.32;8.75;;;;;;;;;;5032738;28;20112;-64
2023/01/16 13:27:47;;;;;;;14.70;8.80;;;;;;;;;;5033145;28;20026;-64
2023/01/16 13:30:15;;;;;;;22.98;10.30;;;;;;;;;;5031938;28;20485;-65
2023/01/16 13:32:44;;;;;;;14.45;9.05;;;;;;;;;;5033102;28;20474;-66
2023/01/16 13:35:13;;;;;;;15.75;9.25;;;;;;;;;;5032927;28;20029;-66
2023/01/16 13:37:50;;;;;;;16.13;9.48;;;;;;;;;;5033256;28;20033;-66
2023/01/16 13:40:19;;;;;;;14.70;8.50;;;;;;;;;;5033262;28;20036;-66
2023/01/16 13:45:54;;;;;;;15.33;8.77;;;;;;;;;;5032589;28;20084;-66
2023/01/16 13:48:21;;;;;;;15.02;9.10;;;;;;;;;;5033071;28;20344;-66
2023/01/16 13:50:53;;;;;;;14.18;8.65;;;;;;;;;;5032923;28;20033;-66
2023/01/16 13:53:22;;;;;;;14.20;8.82;;;;;;;;;;5031316;28;20030;-65
2023/01/16 13:55:49;;;;;;;14.98;8.55;;;;;;;;;;5031340;28;20021;-63
2023/01/16 13:58:18;;;;;;;14.38;8.85;;;;;;;;;;5032653;28;20030;-64
2023/01/16 14:00:44;;;;;;;14.13;8.38;;;;;;;;;;5032424;28;20413;-64
2023/01/16 14:03:26;;;;;;;14.77;8.48;;;;;;;;;;5032001;28;20036;-65
2023/01/16 14:06:11;;;;;;;14.15;8.07;;;;;;;;;;5032857;28;20087;-65
2023/01/16 14:09:04;;;;;;;13.80;8.05;;;;;;;;;;5032474;28;20088;-64
2023/01/16 14:11:41;;;;;;;18.98;10.43;;;;;;;;;;5032135;28;20037;-61
2023/01/16 14:17:11;;;;;;;14.30;7.22;;;;;;;;;;5032523;28;20508;-63
2023/01/16 14:19:52;;;;;;;14.02;7.85;;;;;;;;;;5032184;28;20033;-64
2023/01/16 14:24:48;;;;;;;13.40;7.80;;;;;;;;;;5031716;28;20026;-65
2023/01/16 14:27:16;;;;;;;14.77;8.45;;;;;;;;;;5031801;28;20026;-65
2023/01/16 14:29:46;;;;;;;14.60;7.95;;;;;;;;;;5031733;28;20053;-64
2023/01/16 14:32:12;;;;;;;14.30;8.50;;;;;;;;;;5031364;28;20057;-64
2023/01/16 14:34:49;;;;;;;13.55;8.10;;;;;;;;;;5030336;28;20061;-66
2023/01/16 14:37:17;;;;;;;13.88;8.55;;;;;;;;;;5032051;28;20064;-65
2023/01/16 14:39:50;;;;;;;14.50;8.80;;;;;;;;;;5032047;28;20030;-66
2023/01/16 14:56:33;;;;;;;13.98;9.15;;;;;;;;;;5031603;28;20103;-65
2023/01/16 14:59:04;;;;;;;15.90;9.80;;;;;;;;;;5031258;28;20037;-63
2023/01/16 15:04:43;;;;;;;15.68;9.70;;;;;;;;;;5030563;28;20041;-65
2023/01/16 15:07:09;;;;;;;16.20;8.93;;;;;;;;;;5029966;28;20489;-63
2023/01/16 15:09:38;;;;;;;17.15;10.75;;;;;;;;;;5031877;28;20025;-65
2023/01/16 15:12:13;;;;;;;13.65;8.50;;;;;;;;;;5029517;28;20029;-60
2023/01/16 15:14:51;;;;;;;15.85;8.63;;;;;;;;;;5031076;28;20052;-65
2023/01/16 15:22:59;;;;;;;14.63;8.60;;;;;;;;;;5030811;28;20064;-65
2023/01/16 15:25:39;;;;;;;14.38;8.25;;;;;;;;;;5030310;28;20014;-66
2023/01/16 15:28:24;;;;;;;14.45;8.00;;;;;;;;;;5031206;28;20044;-65
2023/01/16 15:30:54;;;;;;;14.70;8.57;;;;;;;;;;5030747;28;20381;-66
2023/01/16 15:33:48;;;;;;;14.40;8.50;;;;;;;;;;5030526;28;20045;-65
2023/01/16 15:36:31;;;;;;;13.77;8.05;;;;;;;;;;4679203;28;9999843;-64
2023/01/16 15:38:59;;;;;;;13.85;7.75;;;;;;;;;;5025203;28;20044;-66
2023/01/16 15:47:27;;;;;;;14.10;8.10;;;;;;;;;;5026959;28;20080;-66
2023/01/16 15:50:12;;;;;;;14.38;8.25;;;;;;;;;;5026384;28;20063;-67
2023/01/16 15:52:41;;;;;;;14.82;8.85;;;;;;;;;;5026765;28;20209;-65
2023/01/16 15:55:11;;;;;;;16.52;9.80;;;;;;;;;;5025967;28;20029;-66
2023/01/16 15:57:37;;;;;;;15.60;9.48;;;;;;;;;;5025992;28;20033;-66
2023/01/16 16:00:04;;;;;;;14.30;9.20;;;;;;;;;;5027895;28;20435;-66
2023/01/16 16:02:32;;;;;;;14.55;9.95;;;;;;;;;;5027406;28;20033;-65
2023/01/16 16:05:00;;;;;;;16.10;10.60;;;;;;;;;;5029540;28;20033;-65
2023/01/16 16:07:26;;;;;;;14.90;11.23;;;;;;;;;;5037308;28;20021;-66
2023/01/16 16:09:54;;;;;;;15.40;11.73;;;;;;;;;;5036974;28;20025;-66
2023/01/16 16:12:21;;;;;;;17.73;12.70;;;;;;;;;;5029600;28;20520;-66
2023/01/16 16:20:38;;;;;;;17.90;16.00;;;;;;;;;;5031101;28;20130;-66
2023/01/16 16:23:13;;;;;;;18.55;16.70;;;;;;;;;;5031104;28;20048;-65
2023/01/16 16:25:41;;;;;;;20.27;18.38;;;;;;;;;;5031833;28;20033;-66